createdAt,value
2023-03-07T00:02:15.167Z,35.08
2023-03-07T00:04:45.363Z,35.49
2023-03-07T00:07:12.324Z,35.23
2023-03-07T00:09:39.275Z,35.00
2023-03-07T00:12:06.749Z,35.34
2023-03-07T00:14:33.904Z,35.39
2023-03-07T00:17:00.999Z,35.06
2023-03-07T00:19:28.011Z,35.12
2023-03-07T00:21:54.898Z,35.17
2023-03-07T00:24:21.931Z,35.06
2023-03-07T00:26:48.997Z,35.04
2023-03-07T00:29:15.856Z,34.95
2023-03-07T00:31:42.811Z,35.24
2023-03-07T00:34:09.825Z,35.33
2023-03-07T00:36:36.712Z,34.96
2023-03-07T00:39:04.504Z,35.22
2023-03-07T00:41:31.618Z,35.03
2023-03-07T00:43:58.562Z,35.44
2023-03-07T00:46:25.978Z,35.26
2023-03-07T00:48:53.529Z,35.16
2023-03-07T00:51:21.109Z,35.55
2023-03-07T00:53:48.382Z,35.27
2023-03-07T00:56:16.565Z,35.24
2023-03-07T00:58:43.611Z,35.42
2023-03-07T01:01:15.487Z,35.65
2023-03-07T01:03:43.009Z,35.46
2023-03-07T01:06:12.219Z,35.71
2023-03-07T01:08:39.355Z,35.32
2023-03-07T01:11:07.282Z,35.79
2023-03-07T01:13:35.436Z,35.63
2023-03-07T01:16:05.369Z,35.76
2023-03-07T01:18:32.366Z,35.94
2023-03-07T01:20:59.209Z,36.14
2023-03-07T01:23:26.316Z,36.03
2023-03-07T01:25:53.285Z,35.95
2023-03-07T01:28:20.200Z,35.92
2023-03-07T01:30:56.639Z,35.99
2023-03-07T01:33:23.616Z,36.28
2023-03-07T01:35:50.674Z,36.50
2023-03-07T01:38:17.566Z,36.32
2023-03-07T01:40:44.504Z,36.39
2023-03-07T01:43:14.439Z,36.26
2023-03-07T01:45:44.407Z,36.25
2023-03-07T01:48:11.356Z,36.30
2023-03-07T01:50:38.267Z,36.71
2023-03-07T01:53:05.886Z,36.72
2023-03-07T01:55:34.291Z,36.82
2023-03-07T01:58:04.893Z,37.06
2023-03-07T02:00:31.855Z,36.93
2023-03-07T02:03:01.756Z,36.92
2023-03-07T02:05:33.103Z,36.82
2023-03-07T02:08:00.860Z,36.87
2023-03-07T02:10:28.338Z,36.83
2023-03-07T02:12:55.366Z,36.69
2023-03-07T02:15:22.326Z,37.02
2023-03-07T02:17:49.724Z,36.96
2023-03-07T02:20:18.512Z,36.92
2023-03-07T02:22:45.428Z,36.76
2023-03-07T02:25:18.299Z,36.72
2023-03-07T02:27:46.457Z,37.04
2023-03-07T02:30:13.484Z,37.24
2023-03-07T02:32:40.661Z,37.16
2023-03-07T02:35:10.610Z,36.90
2023-03-07T02:37:38.854Z,37.16
2023-03-07T02:40:08.790Z,36.80
2023-03-07T02:42:37.861Z,37.45
2023-03-07T02:45:06.316Z,37.54
2023-03-07T02:47:33.180Z,37.44
2023-03-07T02:50:00.173Z,37.07
2023-03-07T02:52:29.038Z,37.20
2023-03-07T02:54:56.371Z,37.28
2023-03-07T02:57:23.321Z,37.42
2023-03-07T02:59:50.258Z,37.37
2023-03-07T03:02:17.359Z,37.08
2023-03-07T03:04:44.251Z,37.24
2023-03-07T03:07:11.220Z,37.54
2023-03-07T03:09:38.176Z,37.08
2023-03-07T03:12:05.208Z,37.44
2023-03-07T03:14:32.802Z,37.32
2023-03-07T03:16:59.696Z,37.11
2023-03-07T03:19:26.763Z,37.14
2023-03-07T03:21:53.627Z,36.98
2023-03-07T03:24:20.471Z,36.91
2023-03-07T03:26:47.524Z,36.98
2023-03-07T03:29:15.073Z,37.11
2023-03-07T03:31:42.076Z,37.28
2023-03-07T03:34:09.960Z,36.96
2023-03-07T03:36:36.933Z,37.16
2023-03-07T03:39:04.271Z,37.17
2023-03-07T03:41:31.201Z,37.31
2023-03-07T03:43:58.216Z,37.22
2023-03-07T03:46:25.250Z,37.49
2023-03-07T03:48:53.847Z,37.22
2023-03-07T03:51:20.966Z,37.46
2023-03-07T03:53:48.004Z,37.36
2023-03-07T03:56:16.258Z,37.31
2023-03-07T03:58:43.529Z,37.36
2023-03-07T04:01:12.037Z,36.91
2023-03-07T04:03:40.037Z,36.80
2023-03-07T04:06:08.371Z,36.81
2023-03-07T04:08:35.534Z,36.69
2023-03-07T04:11:02.437Z,36.97
2023-03-07T04:13:29.327Z,36.97
2023-03-07T04:15:56.207Z,36.58
2023-03-07T04:18:24.238Z,36.68
2023-03-07T04:20:52.666Z,36.77
2023-03-07T04:23:20.599Z,36.62
2023-03-07T04:25:49.700Z,36.57
2023-03-07T04:28:17.528Z,36.39
2023-03-07T04:30:44.801Z,36.67
2023-03-07T04:33:13.002Z,36.46
2023-03-07T04:35:40.294Z,36.76
2023-03-07T04:38:07.560Z,36.31
2023-03-07T04:40:34.936Z,36.27
2023-03-07T04:43:02.099Z,36.56
2023-03-07T04:45:29.079Z,36.63
2023-03-07T04:47:56.014Z,36.45
2023-03-07T04:50:23.003Z,36.47
2023-03-07T04:52:50.780Z,36.23
2023-03-07T04:55:17.617Z,36.32
2023-03-07T04:57:44.559Z,36.24
2023-03-07T05:00:11.957Z,36.66
2023-03-07T05:02:39.253Z,36.86
2023-03-07T05:05:06.917Z,36.93
2023-03-07T05:07:33.850Z,37.16
2023-03-07T05:10:00.692Z,36.67
2023-03-07T05:12:27.674Z,36.80
2023-03-07T05:14:54.607Z,36.75
2023-03-07T05:17:21.462Z,36.85
2023-03-07T05:19:48.353Z,37.30
2023-03-07T05:22:15.190Z,37.24
2023-03-07T05:24:42.079Z,37.04
2023-03-07T05:27:08.986Z,37.00
2023-03-07T05:29:36.016Z,37.27
2023-03-07T05:32:02.963Z,37.58
2023-03-07T05:34:29.945Z,37.03
2023-03-07T05:36:58.558Z,37.25
2023-03-07T05:39:27.684Z,37.41
2023-03-07T05:41:55.403Z,37.33
2023-03-07T05:44:22.381Z,37.28
2023-03-07T05:46:49.369Z,37.40
2023-03-07T05:49:16.307Z,37.25
2023-03-07T05:51:43.273Z,37.29
2023-03-07T05:54:10.199Z,37.26
2023-03-07T05:56:37.978Z,37.36
2023-03-07T05:59:07.989Z,37.22
2023-03-07T06:01:35.202Z,37.44
2023-03-07T06:04:02.337Z,37.61
2023-03-07T06:06:29.158Z,37.62
2023-03-07T06:08:56.050Z,37.68
2023-03-07T06:11:23.044Z,37.61
2023-03-07T06:13:50.015Z,37.27
2023-03-07T06:16:17.090Z,37.54
2023-03-07T06:18:43.982Z,37.16
2023-03-07T06:21:13.362Z,37.52
2023-03-07T06:23:40.414Z,37.26
2023-03-07T06:26:08.473Z,37.04
2023-03-07T06:28:36.200Z,36.79
2023-03-07T06:31:08.474Z,37.22
2023-03-07T06:33:35.486Z,37.15
2023-03-07T06:36:05.976Z,36.80
2023-03-07T06:38:33.062Z,36.98
2023-03-07T06:41:00.304Z,36.63
2023-03-07T06:43:27.587Z,36.69
2023-03-07T06:45:54.796Z,36.37
2023-03-07T06:48:21.855Z,36.72
2023-03-07T06:50:48.918Z,36.21
2023-03-07T06:53:17.196Z,36.47
2023-03-07T06:55:44.393Z,36.66
2023-03-07T06:58:11.451Z,36.48
2023-03-07T07:00:38.367Z,36.07
2023-03-07T07:03:05.730Z,36.37
2023-03-07T07:05:32.828Z,36.62
2023-03-07T07:08:00.119Z,36.57
2023-03-07T07:10:27.406Z,36.19
2023-03-07T07:12:56.951Z,36.21
2023-03-07T07:15:24.711Z,36.17
2023-03-07T07:17:52.125Z,36.96
2023-03-07T07:20:19.696Z,37.08
2023-03-07T07:22:46.773Z,37.34
2023-03-07T07:25:13.667Z,36.80
2023-03-07T07:27:40.991Z,36.98
2023-03-07T07:30:09.182Z,36.56
2023-03-07T07:32:36.543Z,36.70
2023-03-07T07:35:03.836Z,33.13
2023-03-07T07:37:31.617Z,34.00
2023-03-07T07:39:58.657Z,34.53
2023-03-07T07:42:25.488Z,34.72
2023-03-07T07:44:52.427Z,34.34
2023-03-07T07:47:19.568Z,34.78
2023-03-07T07:49:48.837Z,34.46
2023-03-07T07:52:15.702Z,34.38
2023-03-07T07:54:42.591Z,34.77
2023-03-07T07:57:09.990Z,34.32
2023-03-07T07:59:37.293Z,34.62
2023-03-07T08:02:06.658Z,34.88
2023-03-07T08:04:36.080Z,34.57
2023-03-07T08:07:03.402Z,35.46
2023-03-07T08:09:30.373Z,34.75
2023-03-07T08:11:57.377Z,34.72
2023-03-07T08:14:24.868Z,34.68
2023-03-07T08:16:52.155Z,34.91
2023-03-07T08:19:19.557Z,34.66
2023-03-07T08:21:47.097Z,35.04
2023-03-07T08:24:14.357Z,35.04
2023-03-07T08:26:41.701Z,34.81
2023-03-07T08:29:09.587Z,35.27
2023-03-07T08:31:36.962Z,35.37
2023-03-07T08:34:04.367Z,35.25
2023-03-07T08:36:31.535Z,35.44
2023-03-07T08:39:01.194Z,35.49
2023-03-07T08:41:29.574Z,35.24
2023-03-07T08:43:57.018Z,35.45
2023-03-07T08:46:24.657Z,35.34
2023-03-07T08:48:54.293Z,35.32
2023-03-07T08:51:24.868Z,35.50
2023-03-07T08:53:52.366Z,35.46
2023-03-07T08:56:20.308Z,35.48
2023-03-07T08:58:49.791Z,35.23
2023-03-07T09:01:16.944Z,35.32
2023-03-07T09:03:48.196Z,35.30
2023-03-07T09:06:16.614Z,35.48
2023-03-07T09:08:45.628Z,35.58
2023-03-07T09:11:13.074Z,35.46
2023-03-07T09:13:50.981Z,35.65
2023-03-07T09:16:22.463Z,35.49
2023-03-07T09:18:50.277Z,35.31
2023-03-07T09:21:17.950Z,35.52
2023-03-07T09:23:48.435Z,35.77
2023-03-07T09:26:16.200Z,35.75
2023-03-07T09:28:43.268Z,35.43
2023-03-07T09:31:11.353Z,35.34
2023-03-07T09:33:38.853Z,35.42
2023-03-07T09:36:07.093Z,35.71
2023-03-07T09:38:34.713Z,35.92
2023-03-07T09:41:08.672Z,35.58
2023-03-07T09:43:47.187Z,35.85
2023-03-07T09:46:17.298Z,35.94
2023-03-07T09:48:46.338Z,35.96
2023-03-07T09:51:13.942Z,36.05
2023-03-07T09:53:43.480Z,36.01
2023-03-07T09:56:14.754Z,36.00
2023-03-07T09:58:47.555Z,36.20
2023-03-07T10:01:16.664Z,35.95
2023-03-07T10:03:52.061Z,35.92
2023-03-07T10:06:23.834Z,35.99
2023-03-07T10:08:51.480Z,35.83
2023-03-07T10:11:27.805Z,35.56
2023-03-07T10:13:56.456Z,35.85
2023-03-07T10:16:24.379Z,35.75
2023-03-07T10:18:54.936Z,35.59
2023-03-07T10:21:23.735Z,35.40
2023-03-07T10:23:53.175Z,35.32
2023-03-07T10:26:23.513Z,35.31
2023-03-07T10:28:51.368Z,35.50
2023-03-07T10:31:26.455Z,35.56
2023-03-07T10:33:56.359Z,35.47
2023-03-07T10:36:28.760Z,35.26
2023-03-07T10:39:01.649Z,35.49
2023-03-07T10:41:29.390Z,35.31
2023-03-07T10:43:57.479Z,35.18
2023-03-07T10:46:27.768Z,35.53
2023-03-07T10:48:55.549Z,35.61
2023-03-07T10:51:26.654Z,36.03
2023-03-07T10:53:54.029Z,36.03
2023-03-07T10:56:21.397Z,35.95
2023-03-07T10:58:57.479Z,36.02
2023-03-07T11:01:28.370Z,36.52
2023-03-07T11:03:58.906Z,36.32
2023-03-07T11:06:27.286Z,36.24
2023-03-07T11:08:56.426Z,36.64
2023-03-07T11:11:25.392Z,36.51
2023-03-07T11:13:55.800Z,36.53
2023-03-07T11:16:23.954Z,36.46
2023-03-07T11:18:51.151Z,36.38
2023-03-07T11:21:21.300Z,36.13
2023-03-07T11:23:58.962Z,36.36
2023-03-07T11:26:27.939Z,36.20
2023-03-07T11:28:59.704Z,36.56
2023-03-07T11:31:30.814Z,36.57
2023-03-07T11:34:06.995Z,36.05
2023-03-07T11:36:36.432Z,36.29
2023-03-07T11:39:06.809Z,36.10
2023-03-07T11:41:37.238Z,36.44
2023-03-07T11:44:07.391Z,36.51
2023-03-07T11:46:38.378Z,36.48
2023-03-07T11:49:09.159Z,36.19
2023-03-07T11:51:45.825Z,36.28
2023-03-07T11:54:20.230Z,36.08
2023-03-07T11:56:50.672Z,36.28
2023-03-07T11:59:21.208Z,35.98
2023-03-07T12:01:51.625Z,36.02
2023-03-07T12:04:19.118Z,36.13
2023-03-07T12:06:49.656Z,35.87
2023-03-07T12:09:17.215Z,36.01
2023-03-07T12:11:45.007Z,36.21
2023-03-07T12:14:14.362Z,36.50
2023-03-07T12:16:42.335Z,36.31
2023-03-07T12:19:12.759Z,36.07
2023-03-07T12:21:50.853Z,36.24
2023-03-07T12:24:21.412Z,36.32
2023-03-07T12:26:54.032Z,35.92
2023-03-07T12:29:30.043Z,36.36
2023-03-07T12:32:01.041Z,36.21
2023-03-07T12:34:31.614Z,36.52
2023-03-07T12:37:02.290Z,36.70
2023-03-07T12:39:33.567Z,36.55
2023-03-07T12:42:03.785Z,36.98
2023-03-07T12:44:31.150Z,37.05
2023-03-07T12:47:04.279Z,36.76
2023-03-07T12:49:40.877Z,37.58
2023-03-07T12:52:23.315Z,37.19
2023-03-07T12:54:56.731Z,37.02
2023-03-07T12:57:30.296Z,36.34
2023-03-07T12:59:59.160Z,36.39
2023-03-07T13:02:29.851Z,36.31
2023-03-07T13:04:58.520Z,36.30
2023-03-07T13:07:30.197Z,36.53
2023-03-07T13:09:59.311Z,36.40
2023-03-07T13:12:31.550Z,36.39
2023-03-07T13:14:59.294Z,36.63
2023-03-07T13:17:28.682Z,36.32
2023-03-07T13:19:56.500Z,36.21
2023-03-07T13:22:31.518Z,36.36
2023-03-07T13:25:18.331Z,36.58
2023-03-07T13:27:47.211Z,36.20
2023-03-07T13:30:15.717Z,36.43
2023-03-07T13:32:46.077Z,36.07
2023-03-07T13:35:13.320Z,36.35
2023-03-07T13:37:43.507Z,35.50
2023-03-07T13:40:14.036Z,35.16
2023-03-07T13:42:44.827Z,35.64
2023-03-07T13:45:15.157Z,35.44
2023-03-07T13:47:46.035Z,35.15
2023-03-07T13:50:16.381Z,34.82
2023-03-07T13:52:45.730Z,34.84
2023-03-07T13:55:28.379Z,34.65
2023-03-07T13:57:57.477Z,34.63
2023-03-07T14:00:29.630Z,34.79
2023-03-07T14:02:57.218Z,34.46
2023-03-07T14:05:24.740Z,34.36
2023-03-07T14:07:54.727Z,34.08
2023-03-07T14:10:25.163Z,34.20
2023-03-07T14:12:57.639Z,34.42
2023-03-07T14:15:28.200Z,34.24
2023-03-07T14:17:58.493Z,34.49
2023-03-07T14:20:28.996Z,34.53
2023-03-07T14:22:56.895Z,34.18
2023-03-07T14:25:26.043Z,34.47
2023-03-07T14:27:56.234Z,34.59
2023-03-07T14:30:25.190Z,34.21
2023-03-07T14:32:52.846Z,34.68
2023-03-07T14:35:23.165Z,34.70
2023-03-07T14:37:50.681Z,34.71
2023-03-07T14:40:29.035Z,34.42
2023-03-07T14:43:00.447Z,34.71
2023-03-07T14:45:37.557Z,34.50
2023-03-07T14:48:08.196Z,34.57
2023-03-07T14:50:40.400Z,34.25
2023-03-07T14:53:17.294Z,33.96
2023-03-07T14:55:47.228Z,30.55
2023-03-07T14:58:17.487Z,29.81
2023-03-07T15:00:44.831Z,30.85
2023-03-07T15:03:16.716Z,31.58
2023-03-07T15:05:47.476Z,32.36
2023-03-07T15:08:17.689Z,32.51
2023-03-07T15:10:50.257Z,32.84
2023-03-07T15:13:23.801Z,32.56
2023-03-07T15:15:55.259Z,32.87
2023-03-07T15:18:25.864Z,33.00
2023-03-07T15:20:55.287Z,32.79
2023-03-07T15:23:24.424Z,32.89
2023-03-07T15:25:53.139Z,33.18
2023-03-07T15:28:21.714Z,33.28
2023-03-07T15:30:53.197Z,33.43
2023-03-07T15:33:20.913Z,33.32
2023-03-07T15:36:06.460Z,33.23
2023-03-07T15:38:33.883Z,33.07
2023-03-07T15:41:01.022Z,33.52
2023-03-07T15:43:34.979Z,33.35
2023-03-07T15:46:04.173Z,33.54
2023-03-07T15:48:34.377Z,33.22
2023-03-07T15:51:03.642Z,33.63
2023-03-07T15:53:32.129Z,33.25
2023-03-07T15:56:01.220Z,33.71
2023-03-07T15:58:29.085Z,33.75
2023-03-07T16:00:59.336Z,33.68
2023-03-07T16:03:29.049Z,33.65
2023-03-07T16:05:57.403Z,33.75
2023-03-07T16:08:27.756Z,33.70
2023-03-07T16:10:55.250Z,33.47
2023-03-07T16:13:23.042Z,33.61
2023-03-07T16:15:53.302Z,33.71
2023-03-07T16:18:28.205Z,33.49
2023-03-07T16:20:55.410Z,33.67
2023-03-07T16:23:22.689Z,33.80
2023-03-07T16:25:49.971Z,33.57
2023-03-07T16:28:16.995Z,33.64
2023-03-07T16:30:45.797Z,33.87
2023-03-07T16:33:13.491Z,33.97
2023-03-07T16:35:40.900Z,33.72
2023-03-07T16:38:08.031Z,34.10
2023-03-07T16:40:35.727Z,33.90
2023-03-07T16:43:03.005Z,34.05
2023-03-07T16:45:31.642Z,33.70
2023-03-07T16:48:00.226Z,33.76
2023-03-07T16:50:29.241Z,33.90
2023-03-07T16:52:58.778Z,34.10
2023-03-07T16:55:26.445Z,34.22
2023-03-07T16:57:55.648Z,33.95
2023-03-07T17:00:24.578Z,34.15
2023-03-07T17:02:52.997Z,34.31
2023-03-07T17:05:21.183Z,34.13
2023-03-07T17:07:48.750Z,34.20
2023-03-07T17:10:16.110Z,34.04
2023-03-07T17:12:43.836Z,34.56
2023-03-07T17:15:14.861Z,34.23
2023-03-07T17:17:42.541Z,34.09
2023-03-07T17:20:13.671Z,33.78
2023-03-07T17:22:41.082Z,33.97
2023-03-07T17:25:09.570Z,34.05
2023-03-07T17:27:41.763Z,33.79
2023-03-07T17:30:11.467Z,34.09
2023-03-07T17:32:39.257Z,33.80
2023-03-07T17:35:08.609Z,33.71
2023-03-07T17:37:54.820Z,33.81
2023-03-07T17:40:22.212Z,33.67
2023-03-07T17:43:05.342Z,33.94
2023-03-07T17:45:33.785Z,33.47
2023-03-07T17:48:05.774Z,33.59
2023-03-07T17:50:37.683Z,33.64
2023-03-07T17:53:06.419Z,33.71
2023-03-07T17:55:35.349Z,33.32
2023-03-07T17:58:02.971Z,33.57
2023-03-07T18:00:30.552Z,33.38
2023-03-07T18:02:58.207Z,33.58
2023-03-07T18:05:26.699Z,33.38
2023-03-07T18:07:57.411Z,33.18
2023-03-07T18:10:25.264Z,33.13
2023-03-07T18:12:57.796Z,33.55
2023-03-07T18:15:29.172Z,33.07
2023-03-07T18:17:58.847Z,33.13
2023-03-07T18:20:26.376Z,33.26
2023-03-07T18:22:53.725Z,33.03
2023-03-07T18:25:21.125Z,32.90
2023-03-07T18:27:48.990Z,33.34
2023-03-07T18:30:17.170Z,32.92
2023-03-07T18:32:44.689Z,32.98
2023-03-07T18:35:12.909Z,33.11
2023-03-07T18:37:40.387Z,33.33
2023-03-07T18:40:08.573Z,33.04
2023-03-07T18:42:35.727Z,33.08
2023-03-07T18:45:03.316Z,33.40
2023-03-07T18:47:33.892Z,33.34
2023-03-07T18:50:01.308Z,33.01
2023-03-07T18:52:28.590Z,33.08
2023-03-07T18:54:56.252Z,35.49
2023-03-07T18:57:25.808Z,35.04
2023-03-07T18:59:53.202Z,34.66
2023-03-07T19:02:20.526Z,34.74
2023-03-07T19:04:47.949Z,34.00
2023-03-07T19:07:15.690Z,34.06
2023-03-07T19:09:48.380Z,33.79
2023-03-07T19:12:16.943Z,33.85
2023-03-07T19:14:44.913Z,33.64
2023-03-07T19:17:13.356Z,33.82
2023-03-07T19:19:41.870Z,33.52
2023-03-07T19:22:11.655Z,33.68
2023-03-07T19:24:39.796Z,33.74
2023-03-07T19:27:08.471Z,33.81
2023-03-07T19:29:38.211Z,33.83
2023-03-07T19:32:06.074Z,33.33
2023-03-07T19:34:33.950Z,33.68
2023-03-07T19:37:01.477Z,33.42
2023-03-07T19:39:29.184Z,33.64
2023-03-07T19:41:56.555Z,33.66
2023-03-07T19:44:23.769Z,33.33
2023-03-07T19:46:51.154Z,33.18
2023-03-07T19:49:18.571Z,33.58
2023-03-07T19:51:45.555Z,33.08
2023-03-07T19:54:14.248Z,33.30
2023-03-07T19:56:43.036Z,33.24
2023-03-07T19:59:10.350Z,33.18
2023-03-07T20:01:38.258Z,33.34
2023-03-07T20:04:08.702Z,33.17
2023-03-07T20:06:36.789Z,33.32
2023-03-07T20:09:05.491Z,33.30
2023-03-07T20:11:34.264Z,33.20
2023-03-07T20:14:04.000Z,33.36
2023-03-07T20:16:33.432Z,32.99
2023-03-07T20:19:02.785Z,33.39
2023-03-07T20:21:32.608Z,33.05
2023-03-07T20:24:01.623Z,33.11
2023-03-07T20:26:31.944Z,32.94
2023-03-07T20:28:59.832Z,33.04
2023-03-07T20:31:28.372Z,33.20
2023-03-07T20:33:58.025Z,33.57
2023-03-07T20:36:26.505Z,33.25
2023-03-07T20:38:55.027Z,33.41
2023-03-07T20:41:23.310Z,33.20
2023-03-07T20:43:51.108Z,33.36
2023-03-07T20:46:21.002Z,33.39
2023-03-07T20:48:48.924Z,33.25
2023-03-07T20:51:19.004Z,33.55
2023-03-07T20:53:46.613Z,33.35
2023-03-07T20:56:13.605Z,33.48
2023-03-07T20:58:40.748Z,33.27
2023-03-07T21:01:07.716Z,33.41
2023-03-07T21:03:34.839Z,33.72
2023-03-07T21:06:02.409Z,33.76
2023-03-07T21:08:30.972Z,33.60
2023-03-07T21:10:59.125Z,33.41
2023-03-07T21:13:26.241Z,33.64
2023-03-07T21:15:54.783Z,33.60
2023-03-07T21:18:23.195Z,33.83
2023-03-07T21:20:51.477Z,33.60
2023-03-07T21:23:21.274Z,33.84
2023-03-07T21:25:50.592Z,33.93
2023-03-07T21:28:19.374Z,33.47
2023-03-07T21:30:49.564Z,33.61
2023-03-07T21:33:17.086Z,33.52
2023-03-07T21:35:44.215Z,33.78
2023-03-07T21:38:11.219Z,33.89
2023-03-07T21:40:38.792Z,33.84
2023-03-07T21:43:06.908Z,34.00
2023-03-07T21:45:34.986Z,33.87
2023-03-07T21:48:02.586Z,33.74
2023-03-07T21:50:32.042Z,33.88
2023-03-07T21:52:59.039Z,33.83
2023-03-07T21:55:26.125Z,33.83
2023-03-07T21:57:55.371Z,34.09
2023-03-07T22:00:23.049Z,33.88
2023-03-07T22:02:50.089Z,33.77
2023-03-07T22:05:17.153Z,33.68
2023-03-07T22:07:44.223Z,33.99
2023-03-07T22:10:11.579Z,34.07
2023-03-07T22:12:38.489Z,33.69
2023-03-07T22:15:05.780Z,33.62
2023-03-07T22:17:34.206Z,33.89
2023-03-07T22:20:01.147Z,33.86
2023-03-07T22:22:28.107Z,33.56
2023-03-07T22:24:54.882Z,33.75
2023-03-07T22:27:21.868Z,33.95
2023-03-07T22:29:48.741Z,33.88
2023-03-07T22:32:15.737Z,33.89
2023-03-07T22:34:42.573Z,33.68
2023-03-07T22:37:09.422Z,33.68
2023-03-07T22:39:36.331Z,33.31
2023-03-07T22:42:06.052Z,33.58
2023-03-07T22:44:32.873Z,33.62
2023-03-07T22:46:59.880Z,33.12
2023-03-07T22:49:28.139Z,33.04
2023-03-07T22:51:55.241Z,33.05
2023-03-07T22:54:25.256Z,33.43
2023-03-07T22:56:52.395Z,32.86
2023-03-07T22:59:19.482Z,33.00
2023-03-07T23:01:46.727Z,33.10
2023-03-07T23:04:13.927Z,33.08
2023-03-07T23:06:40.922Z,32.89
2023-03-07T23:09:08.551Z,33.18
2023-03-07T23:11:36.372Z,33.03
2023-03-07T23:14:04.761Z,32.88
2023-03-07T23:16:32.199Z,33.06
2023-03-07T23:19:01.454Z,32.95
2023-03-07T23:21:32.019Z,32.92
2023-03-07T23:24:00.274Z,33.13
2023-03-07T23:26:28.348Z,33.38
2023-03-07T23:28:55.487Z,33.27
2023-03-07T23:31:24.112Z,33.16
2023-03-07T23:33:51.147Z,33.22
2023-03-07T23:36:18.001Z,33.21
2023-03-07T23:38:46.349Z,33.46
2023-03-07T23:41:13.518Z,33.22
2023-03-07T23:43:40.478Z,33.47
2023-03-07T23:46:07.315Z,33.39
2023-03-07T23:48:34.205Z,33.45
2023-03-07T23:51:01.089Z,33.25
2023-03-07T23:53:28.087Z,33.12
2023-03-07T23:55:56.994Z,33.17
2023-03-07T23:58:23.721Z,33.43
